sensor_id;sensor_type;location;lat;lon;timestamp;P1;durP1;ratioP1;P2;durP2;ratioP2
4636;SDS011;2331;48.806;9.140;2023-05-08T00:01:06;11.80;;;9.00;;
4636;SDS011;2331;48.806;9.140;2023-05-08T00:03:33;12.20;;;9.43;;
4636;SDS011;2331;48.806;9.140;2023-05-08T00:06:02;12.02;;;8.95;;
4636;SDS011;2331;48.806;9.140;2023-05-08T00:08:29;11.38;;;9.15;;
4636;SDS011;2331;48.806;9.140;2023-05-08T00:10:56;14.00;;;10.20;;
4636;SDS011;2331;48.806;9.140;2023-05-08T00:13:23;13.50;;;9.65;;
4636;SDS011;2331;48.806;9.140;2023-05-08T00:15:49;16.25;;;10.27;;
4636;SDS011;2331;48.806;9.140;2023-05-08T00:18:18;13.40;;;10.10;;
4636;SDS011;2331;48.806;9.140;2023-05-08T00:20:44;12.75;;;9.30;;
4636;SDS011;2331;48.806;9.140;2023-05-08T00:23:11;12.48;;;9.45;;
4636;SDS011;2331;48.806;9.140;2023-05-08T00:25:38;12.65;;;8.75;;
4636;SDS011;2331;48.806;9.140;2023-05-08T00:28:04;12.55;;;8.60;;
4636;SDS011;2331;48.806;9.140;2023-05-08T00:30:31;12.15;;;8.98;;
4636;SDS011;2331;48.806;9.140;2023-05-08T00:32:58;11.32;;;9.20;;
4636;SDS011;2331;48.806;9.140;2023-05-08T00:35:26;12.43;;;9.45;;
4636;SDS011;2331;48.806;9.140;2023-05-08T00:37:53;11.85;;;9.23;;
4636;SDS011;2331;48.806;9.140;2023-05-08T00:40:20;15.80;;;10.50;;
4636;SDS011;2331;48.806;9.140;2023-05-08T00:42:47;12.63;;;9.55;;
4636;SDS011;2331;48.806;9.140;2023-05-08T00:45:13;13.32;;;10.07;;
4636;SDS011;2331;48.806;9.140;2023-05-08T00:47:40;13.45;;;10.10;;
4636;SDS011;2331;48.806;9.140;2023-05-08T00:50:08;11.00;;;9.30;;
4636;SDS011;2331;48.806;9.140;2023-05-08T00:52:37;12.27;;;9.65;;
4636;SDS011;2331;48.806;9.140;2023-05-08T00:55:04;12.95;;;9.80;;
4636;SDS011;2331;48.806;9.140;2023-05-08T00:57:32;12.10;;;9.40;;
4636;SDS011;2331;48.806;9.140;2023-05-08T01:00:00;13.90;;;10.20;;
4636;SDS011;2331;48.806;9.140;2023-05-08T01:02:29;13.68;;;10.35;;
4636;SDS011;2331;48.806;9.140;2023-05-08T01:04:57;12.57;;;9.68;;
4636;SDS011;2331;48.806;9.140;2023-05-08T01:07:23;12.32;;;9.85;;
4636;SDS011;2331;48.806;9.140;2023-05-08T01:09:52;12.77;;;9.73;;
4636;SDS011;2331;48.806;9.140;2023-05-08T01:12:20;15.05;;;11.00;;
4636;SDS011;2331;48.806;9.140;2023-05-08T01:14:55;12.68;;;9.77;;
4636;SDS011;2331;48.806;9.140;2023-05-08T01:17:31;14.32;;;10.43;;
4636;SDS011;2331;48.806;9.140;2023-05-08T01:20:14;12.50;;;9.80;;
4636;SDS011;2331;48.806;9.140;2023-05-08T01:26:04;12.30;;;9.57;;
4636;SDS011;2331;48.806;9.140;2023-05-08T01:29:10;11.70;;;9.20;;
4636;SDS011;2331;48.806;9.140;2023-05-08T01:34:56;12.20;;;9.60;;
4636;SDS011;2331;48.806;9.140;2023-05-08T01:37:29;17.02;;;10.25;;
4636;SDS011;2331;48.806;9.140;2023-05-08T01:40:08;19.98;;;10.27;;
4636;SDS011;2331;48.806;9.140;2023-05-08T01:42:40;16.67;;;10.68;;
4636;SDS011;2331;48.806;9.140;2023-05-08T01:45:12;16.08;;;11.55;;
4636;SDS011;2331;48.806;9.140;2023-05-08T01:47:46;14.35;;;9.77;;
4636;SDS011;2331;48.806;9.140;2023-05-08T01:50:21;13.23;;;10.02;;
4636;SDS011;2331;48.806;9.140;2023-05-08T01:52:56;12.40;;;9.93;;
4636;SDS011;2331;48.806;9.140;2023-05-08T01:55:26;13.10;;;9.88;;
4636;SDS011;2331;48.806;9.140;2023-05-08T01:57:57;14.90;;;10.35;;
4636;SDS011;2331;48.806;9.140;2023-05-08T02:00:25;13.35;;;9.90;;
4636;SDS011;2331;48.806;9.140;2023-05-08T02:02:55;13.77;;;10.50;;
4636;SDS011;2331;48.806;9.140;2023-05-08T02:05:23;11.38;;;8.80;;
4636;SDS011;2331;48.806;9.140;2023-05-08T02:07:51;14.35;;;9.50;;
4636;SDS011;2331;48.806;9.140;2023-05-08T02:10:21;14.48;;;9.40;;
4636;SDS011;2331;48.806;9.140;2023-05-08T02:12:50;15.55;;;11.60;;
4636;SDS011;2331;48.806;9.140;2023-05-08T02:15:18;15.15;;;10.82;;
4636;SDS011;2331;48.806;9.140;2023-05-08T02:17:47;19.42;;;11.27;;
4636;SDS011;2331;48.806;9.140;2023-05-08T02:20:17;14.63;;;10.40;;
4636;SDS011;2331;48.806;9.140;2023-05-08T02:22:47;16.85;;;11.23;;
4636;SDS011;2331;48.806;9.140;2023-05-08T02:25:16;13.55;;;10.93;;
4636;SDS011;2331;48.806;9.140;2023-05-08T02:27:44;15.15;;;10.55;;
4636;SDS011;2331;48.806;9.140;2023-05-08T02:30:12;18.02;;;11.90;;
4636;SDS011;2331;48.806;9.140;2023-05-08T02:32:41;16.92;;;12.25;;
4636;SDS011;2331;48.806;9.140;2023-05-08T02:35:10;17.58;;;11.25;;
4636;SDS011;2331;48.806;9.140;2023-05-08T02:37:40;16.83;;;11.90;;
4636;SDS011;2331;48.806;9.140;2023-05-08T02:40:09;19.40;;;12.20;;
4636;SDS011;2331;48.806;9.140;2023-05-08T02:42:38;14.32;;;10.90;;
4636;SDS011;2331;48.806;9.140;2023-05-08T02:45:06;15.38;;;12.07;;
4636;SDS011;2331;48.806;9.140;2023-05-08T02:47:38;14.93;;;11.45;;
4636;SDS011;2331;48.806;9.140;2023-05-08T02:50:12;15.68;;;12.23;;
4636;SDS011;2331;48.806;9.140;2023-05-08T02:52:44;16.33;;;12.32;;
4636;SDS011;2331;48.806;9.140;2023-05-08T02:55:17;18.67;;;11.90;;
4636;SDS011;2331;48.806;9.140;2023-05-08T03:01:15;15.38;;;11.77;;
4636;SDS011;2331;48.806;9.140;2023-05-08T03:03:48;18.13;;;13.10;;
4636;SDS011;2331;48.806;9.140;2023-05-08T03:06:24;17.67;;;13.10;;
4636;SDS011;2331;48.806;9.140;2023-05-08T03:08:59;19.23;;;12.82;;
4636;SDS011;2331;48.806;9.140;2023-05-08T03:11:29;17.42;;;12.57;;
4636;SDS011;2331;48.806;9.140;2023-05-08T03:14:04;15.65;;;11.63;;
4636;SDS011;2331;48.806;9.140;2023-05-08T03:16:35;15.88;;;11.60;;
4636;SDS011;2331;48.806;9.140;2023-05-08T03:19:05;14.57;;;11.27;;
4636;SDS011;2331;48.806;9.140;2023-05-08T03:21:38;16.02;;;11.43;;
4636;SDS011;2331;48.806;9.140;2023-05-08T03:24:09;15.80;;;12.43;;
4636;SDS011;2331;48.806;9.140;2023-05-08T03:26:37;14.75;;;11.38;;
4636;SDS011;2331;48.806;9.140;2023-05-08T03:29:04;18.13;;;11.25;;
4636;SDS011;2331;48.806;9.140;2023-05-08T03:31:32;14.45;;;10.80;;
4636;SDS011;2331;48.806;9.140;2023-05-08T03:34:00;15.73;;;11.52;;
4636;SDS011;2331;48.806;9.140;2023-05-08T03:36:29;16.45;;;11.00;;
4636;SDS011;2331;48.806;9.140;2023-05-08T03:38:57;17.90;;;11.50;;
4636;SDS011;2331;48.806;9.140;2023-05-08T03:41:26;15.13;;;11.73;;
4636;SDS011;2331;48.806;9.140;2023-05-08T03:43:53;14.10;;;10.63;;
4636;SDS011;2331;48.806;9.140;2023-05-08T03:46:21;14.27;;;9.93;;
4636;SDS011;2331;48.806;9.140;2023-05-08T03:48:49;12.65;;;9.85;;
4636;SDS011;2331;48.806;9.140;2023-05-08T03:51:16;16.95;;;9.73;;
4636;SDS011;2331;48.806;9.140;2023-05-08T03:53:44;14.25;;;10.75;;
4636;SDS011;2331;48.806;9.140;2023-05-08T03:56:11;15.18;;;10.73;;
4636;SDS011;2331;48.806;9.140;2023-05-08T03:58:40;12.25;;;9.57;;
4636;SDS011;2331;48.806;9.140;2023-05-08T04:01:18;15.10;;;11.60;;
4636;SDS011;2331;48.806;9.140;2023-05-08T04:03:52;14.25;;;10.65;;
4636;SDS011;2331;48.806;9.140;2023-05-08T04:06:24;15.63;;;10.23;;
4636;SDS011;2331;48.806;9.140;2023-05-08T04:08:59;14.32;;;10.15;;
4636;SDS011;2331;48.806;9.140;2023-05-08T04:11:29;13.27;;;10.23;;
4636;SDS011;2331;48.806;9.140;2023-05-08T04:14:02;15.25;;;10.82;;
4636;SDS011;2331;48.806;9.140;2023-05-08T04:16:31;13.18;;;11.15;;
4636;SDS011;2331;48.806;9.140;2023-05-08T04:19:05;13.30;;;10.65;;
4636;SDS011;2331;48.806;9.140;2023-05-08T04:21:35;16.67;;;11.27;;
4636;SDS011;2331;48.806;9.140;2023-05-08T04:24:07;13.85;;;10.80;;
4636;SDS011;2331;48.806;9.140;2023-05-08T04:26:38;15.68;;;11.13;;
4636;SDS011;2331;48.806;9.140;2023-05-08T04:29:06;13.32;;;10.55;;
4636;SDS011;2331;48.806;9.140;2023-05-08T04:31:34;18.67;;;12.45;;
4636;SDS011;2331;48.806;9.140;2023-05-08T04:34:02;15.75;;;11.68;;
4636;SDS011;2331;48.806;9.140;2023-05-08T04:36:29;16.85;;;11.73;;
4636;SDS011;2331;48.806;9.140;2023-05-08T04:38:57;14.60;;;11.18;;
4636;SDS011;2331;48.806;9.140;2023-05-08T04:41:24;16.65;;;12.10;;
4636;SDS011;2331;48.806;9.140;2023-05-08T04:43:51;16.42;;;11.80;;
4636;SDS011;2331;48.806;9.140;2023-05-08T04:46:20;14.95;;;11.38;;
4636;SDS011;2331;48.806;9.140;2023-05-08T04:48:48;14.23;;;10.43;;
4636;SDS011;2331;48.806;9.140;2023-05-08T04:51:15;16.13;;;12.23;;
4636;SDS011;2331;48.806;9.140;2023-05-08T04:53:41;14.98;;;10.73;;
4636;SDS011;2331;48.806;9.140;2023-05-08T04:56:08;12.13;;;10.10;;
4636;SDS011;2331;48.806;9.140;2023-05-08T04:58:35;12.82;;;10.10;;
4636;SDS011;2331;48.806;9.140;2023-05-08T05:01:02;14.85;;;8.93;;
4636;SDS011;2331;48.806;9.140;2023-05-08T05:03:30;11.48;;;8.10;;
4636;SDS011;2331;48.806;9.140;2023-05-08T05:05:57;10.80;;;8.45;;
4636;SDS011;2331;48.806;9.140;2023-05-08T05:08:24;12.98;;;8.73;;
4636;SDS011;2331;48.806;9.140;2023-05-08T05:10:50;11.70;;;8.48;;
4636;SDS011;2331;48.806;9.140;2023-05-08T05:13:18;10.60;;;9.10;;
4636;SDS011;2331;48.806;9.140;2023-05-08T05:15:45;11.27;;;8.85;;
4636;SDS011;2331;48.806;9.140;2023-05-08T05:18:15;10.65;;;8.68;;
4636;SDS011;2331;48.806;9.140;2023-05-08T05:20:43;11.20;;;8.30;;
4636;SDS011;2331;48.806;9.140;2023-05-08T05:23:10;13.52;;;8.90;;
4636;SDS011;2331;48.806;9.140;2023-05-08T05:25:37;10.85;;;8.63;;
4636;SDS011;2331;48.806;9.140;2023-05-08T05:28:03;11.65;;;9.20;;
4636;SDS011;2331;48.806;9.140;2023-05-08T05:30:30;16.13;;;9.18;;
4636;SDS011;2331;48.806;9.140;2023-05-08T05:32:57;13.55;;;9.48;;
4636;SDS011;2331;48.806;9.140;2023-05-08T05:35:24;13.65;;;10.13;;
4636;SDS011;2331;48.806;9.140;2023-05-08T05:37:52;12.38;;;8.95;;
4636;SDS011;2331;48.806;9.140;2023-05-08T05:40:19;14.70;;;9.40;;
4636;SDS011;2331;48.806;9.140;2023-05-08T05:42:47;13.55;;;9.32;;
4636;SDS011;2331;48.806;9.140;2023-05-08T05:45:14;10.55;;;8.52;;
4636;SDS011;2331;48.806;9.140;2023-05-08T05:47:44;13.10;;;8.93;;
4636;SDS011;2331;48.806;9.140;2023-05-08T05:50:13;11.93;;;9.82;;
4636;SDS011;2331;48.806;9.140;2023-05-08T05:52:41;13.32;;;9.85;;
4636;SDS011;2331;48.806;9.140;2023-05-08T05:55:09;10.40;;;8.68;;
4636;SDS011;2331;48.806;9.140;2023-05-08T05:57:36;9.90;;;8.50;;
4636;SDS011;2331;48.806;9.140;2023-05-08T06:00:03;13.30;;;9.48;;
4636;SDS011;2331;48.806;9.140;2023-05-08T06:02:31;11.23;;;8.88;;
4636;SDS011;2331;48.806;9.140;2023-05-08T06:04:58;9.98;;;8.10;;
4636;SDS011;2331;48.806;9.140;2023-05-08T06:07:25;9.65;;;7.80;;
4636;SDS011;2331;48.806;9.140;2023-05-08T06:09:52;8.88;;;7.10;;
4636;SDS011;2331;48.806;9.140;2023-05-08T06:12:21;12.63;;;8.23;;
4636;SDS011;2331;48.806;9.140;2023-05-08T06:14:48;8.65;;;6.93;;
4636;SDS011;2331;48.806;9.140;2023-05-08T06:17:17;8.65;;;7.57;;
4636;SDS011;2331;48.806;9.140;2023-05-08T06:19:44;11.23;;;8.20;;
4636;SDS011;2331;48.806;9.140;2023-05-08T06:22:14;9.10;;;7.95;;
4636;SDS011;2331;48.806;9.140;2023-05-08T06:24:41;9.43;;;7.57;;
4636;SDS011;2331;48.806;9.140;2023-05-08T06:27:08;9.50;;;7.70;;
4636;SDS011;2331;48.806;9.140;2023-05-08T06:29:36;9.90;;;7.93;;
4636;SDS011;2331;48.806;9.140;2023-05-08T06:32:03;8.88;;;7.10;;
4636;SDS011;2331;48.806;9.140;2023-05-08T06:34:30;9.77;;;7.65;;
4636;SDS011;2331;48.806;9.140;2023-05-08T06:36:57;9.13;;;8.02;;
4636;SDS011;2331;48.806;9.140;2023-05-08T06:39:24;10.77;;;8.65;;
4636;SDS011;2331;48.806;9.140;2023-05-08T06:41:50;14.75;;;9.90;;
4636;SDS011;2331;48.806;9.140;2023-05-08T06:44:17;10.95;;;8.60;;
4636;SDS011;2331;48.806;9.140;2023-05-08T06:46:45;13.63;;;8.98;;
4636;SDS011;2331;48.806;9.140;2023-05-08T06:49:12;10.85;;;9.10;;
4636;SDS011;2331;48.806;9.140;2023-05-08T06:51:39;13.10;;;8.65;;
4636;SDS011;2331;48.806;9.140;2023-05-08T06:54:05;15.73;;;9.27;;
4636;SDS011;2331;48.806;9.140;2023-05-08T06:56:32;10.73;;;8.55;;
4636;SDS011;2331;48.806;9.140;2023-05-08T06:58:59;11.20;;;8.80;;
4636;SDS011;2331;48.806;9.140;2023-05-08T07:01:26;13.18;;;10.02;;
4636;SDS011;2331;48.806;9.140;2023-05-08T07:03:54;11.60;;;9.25;;
4636;SDS011;2331;48.806;9.140;2023-05-08T07:06:21;12.07;;;8.95;;
4636;SDS011;2331;48.806;9.140;2023-05-08T07:08:48;10.85;;;8.30;;
4636;SDS011;2331;48.806;9.140;2023-05-08T07:11:15;12.05;;;9.20;;
4636;SDS011;2331;48.806;9.140;2023-05-08T07:13:42;10.57;;;8.82;;
4636;SDS011;2331;48.806;9.140;2023-05-08T07:16:10;11.77;;;9.20;;
4636;SDS011;2331;48.806;9.140;2023-05-08T07:18:37;12.80;;;8.55;;
4636;SDS011;2331;48.806;9.140;2023-05-08T07:21:05;14.13;;;8.70;;
4636;SDS011;2331;48.806;9.140;2023-05-08T07:23:31;13.05;;;9.18;;
4636;SDS011;2331;48.806;9.140;2023-05-08T07:25:58;10.15;;;8.30;;
4636;SDS011;2331;48.806;9.140;2023-05-08T07:28:25;12.43;;;8.75;;
4636;SDS011;2331;48.806;9.140;2023-05-08T07:30:52;12.27;;;8.77;;
4636;SDS011;2331;48.806;9.140;2023-05-08T07:33:19;9.40;;;8.20;;
4636;SDS011;2331;48.806;9.140;2023-05-08T07:35:46;11.95;;;9.27;;
4636;SDS011;2331;48.806;9.140;2023-05-08T07:38:15;9.70;;;8.40;;
4636;SDS011;2331;48.806;9.140;2023-05-08T07:40:42;9.98;;;7.90;;
4636;SDS011;2331;48.806;9.140;2023-05-08T07:43:08;11.43;;;8.15;;
4636;SDS011;2331;48.806;9.140;2023-05-08T07:45:35;11.63;;;8.40;;
4636;SDS011;2331;48.806;9.140;2023-05-08T07:48:02;10.57;;;8.63;;
4636;SDS011;2331;48.806;9.140;2023-05-08T07:50:29;9.75;;;8.02;;
4636;SDS011;2331;48.806;9.140;2023-05-08T07:52:56;8.70;;;7.55;;
4636;SDS011;2331;48.806;9.140;2023-05-08T07:55:24;9.60;;;7.78;;
4636;SDS011;2331;48.806;9.140;2023-05-08T07:57:50;8.68;;;7.75;;
4636;SDS011;2331;48.806;9.140;2023-05-08T08:00:17;9.27;;;7.70;;
4636;SDS011;2331;48.806;9.140;2023-05-08T08:02:44;10.50;;;8.25;;
4636;SDS011;2331;48.806;9.140;2023-05-08T08:05:11;7.90;;;6.80;;
4636;SDS011;2331;48.806;9.140;2023-05-08T08:07:38;11.70;;;7.88;;
4636;SDS011;2331;48.806;9.140;2023-05-08T08:10:06;8.27;;;7.68;;
4636;SDS011;2331;48.806;9.140;2023-05-08T08:12:34;10.48;;;8.48;;
4636;SDS011;2331;48.806;9.140;2023-05-08T08:15:01;10.48;;;8.30;;
4636;SDS011;2331;48.806;9.140;2023-05-08T08:17:28;11.52;;;8.10;;
4636;SDS011;2331;48.806;9.140;2023-05-08T08:19:55;11.80;;;8.77;;
4636;SDS011;2331;48.806;9.140;2023-05-08T08:22:22;9.25;;;8.05;;
4636;SDS011;2331;48.806;9.140;2023-05-08T08:24:49;9.07;;;8.20;;
4636;SDS011;2331;48.806;9.140;2023-05-08T08:27:15;8.68;;;7.68;;
4636;SDS011;2331;48.806;9.140;2023-05-08T08:29:43;10.18;;;8.10;;
4636;SDS011;2331;48.806;9.140;2023-05-08T08:32:10;11.95;;;7.85;;
4636;SDS011;2331;48.806;9.140;2023-05-08T08:34:37;13.63;;;8.45;;
4636;SDS011;2331;48.806;9.140;2023-05-08T08:37:04;11.20;;;8.80;;
4636;SDS011;2331;48.806;9.140;2023-05-08T08:39:31;11.18;;;8.88;;
4636;SDS011;2331;48.806;9.140;2023-05-08T08:41:59;13.13;;;9.25;;
4636;SDS011;2331;48.806;9.140;2023-05-08T08:44:25;11.93;;;8.43;;
4636;SDS011;2331;48.806;9.140;2023-05-08T08:46:54;13.80;;;9.10;;
4636;SDS011;2331;48.806;9.140;2023-05-08T08:49:26;14.15;;;9.65;;
4636;SDS011;2331;48.806;9.140;2023-05-08T08:51:57;11.85;;;9.73;;
4636;SDS011;2331;48.806;9.140;2023-05-08T08:54:27;13.10;;;9.45;;
4636;SDS011;2331;48.806;9.140;2023-05-08T08:56:56;12.45;;;9.60;;
4636;SDS011;2331;48.806;9.140;2023-05-08T08:59:27;10.75;;;9.13;;
4636;SDS011;2331;48.806;9.140;2023-05-08T09:01:57;10.48;;;8.18;;
4636;SDS011;2331;48.806;9.140;2023-05-08T09:04:31;11.73;;;9.27;;
4636;SDS011;2331;48.806;9.140;2023-05-08T09:06:57;11.73;;;9.20;;
4636;SDS011;2331;48.806;9.140;2023-05-08T09:09:25;13.15;;;9.23;;
4636;SDS011;2331;48.806;9.140;2023-05-08T09:11:52;13.10;;;10.10;;
4636;SDS011;2331;48.806;9.140;2023-05-08T09:14:19;11.60;;;8.95;;
4636;SDS011;2331;48.806;9.140;2023-05-08T09:16:48;10.60;;;7.18;;
4636;SDS011;2331;48.806;9.140;2023-05-08T09:19:16;10.63;;;7.78;;
4636;SDS011;2331;48.806;9.140;2023-05-08T09:21:43;11.32;;;7.30;;
4636;SDS011;2331;48.806;9.140;2023-05-08T09:24:11;12.43;;;7.80;;
4636;SDS011;2331;48.806;9.140;2023-05-08T09:26:38;8.85;;;7.10;;
4636;SDS011;2331;48.806;9.140;2023-05-08T09:29:07;11.43;;;7.57;;
4636;SDS011;2331;48.806;9.140;2023-05-08T09:31:38;8.88;;;7.20;;
4636;SDS011;2331;48.806;9.140;2023-05-08T09:34:06;10.88;;;7.07;;
4636;SDS011;2331;48.806;9.140;2023-05-08T09:36:35;11.75;;;7.53;;
4636;SDS011;2331;48.806;9.140;2023-05-08T09:39:04;10.02;;;7.35;;
4636;SDS011;2331;48.806;9.140;2023-05-08T09:41:36;9.20;;;7.68;;
4636;SDS011;2331;48.806;9.140;2023-05-08T09:44:03;9.95;;;7.63;;
4636;SDS011;2331;48.806;9.140;2023-05-08T09:46:31;10.35;;;7.85;;
4636;SDS011;2331;48.806;9.140;2023-05-08T09:49:00;9.88;;;7.50;;
4636;SDS011;2331;48.806;9.140;2023-05-08T09:51:28;12.65;;;7.70;;
4636;SDS011;2331;48.806;9.140;2023-05-08T09:53:58;11.93;;;8.40;;
4636;SDS011;2331;48.806;9.140;2023-05-08T09:56:35;14.02;;;8.20;;
4636;SDS011;2331;48.806;9.140;2023-05-08T09:59:03;11.93;;;7.63;;
4636;SDS011;2331;48.806;9.140;2023-05-08T10:01:31;10.20;;;7.90;;
4636;SDS011;2331;48.806;9.140;2023-05-08T10:04:00;10.85;;;7.05;;
4636;SDS011;2331;48.806;9.140;2023-05-08T10:06:29;13.70;;;9.15;;
4636;SDS011;2331;48.806;9.140;2023-05-08T10:11:49;9.93;;;7.28;;
4636;SDS011;2331;48.806;9.140;2023-05-08T10:14:17;12.23;;;7.95;;
4636;SDS011;2331;48.806;9.140;2023-05-08T10:16:44;10.73;;;7.35;;
4636;SDS011;2331;48.806;9.140;2023-05-08T10:19:14;10.93;;;7.00;;
4636;SDS011;2331;48.806;9.140;2023-05-08T10:21:42;9.98;;;6.80;;
4636;SDS011;2331;48.806;9.140;2023-05-08T10:24:13;10.73;;;7.47;;
4636;SDS011;2331;48.806;9.140;2023-05-08T10:26:43;11.70;;;7.88;;
4636;SDS011;2331;48.806;9.140;2023-05-08T10:29:20;10.52;;;6.82;;
4636;SDS011;2331;48.806;9.140;2023-05-08T10:31:51;14.05;;;8.38;;
4636;SDS011;2331;48.806;9.140;2023-05-08T10:34:21;10.38;;;7.40;;
4636;SDS011;2331;48.806;9.140;2023-05-08T10:36:49;10.32;;;7.22;;
4636;SDS011;2331;48.806;9.140;2023-05-08T10:39:18;9.65;;;7.10;;
4636;SDS011;2331;48.806;9.140;2023-05-08T10:41:45;14.35;;;7.10;;
4636;SDS011;2331;48.806;9.140;2023-05-08T10:44:14;9.25;;;7.18;;
4636;SDS011;2331;48.806;9.140;2023-05-08T10:46:44;11.10;;;7.10;;
4636;SDS011;2331;48.806;9.140;2023-05-08T10:49:18;10.70;;;7.25;;
4636;SDS011;2331;48.806;9.140;2023-05-08T10:51:52;9.27;;;6.78;;
4636;SDS011;2331;48.806;9.140;2023-05-08T10:54:33;10.57;;;6.65;;
4636;SDS011;2331;48.806;9.140;2023-05-08T10:57:26;10.32;;;6.95;;
4636;SDS011;2331;48.806;9.140;2023-05-08T10:59:53;11.00;;;7.68;;
4636;SDS011;2331;48.806;9.140;2023-05-08T11:02:25;13.18;;;7.43;;
4636;SDS011;2331;48.806;9.140;2023-05-08T11:04:53;8.80;;;6.78;;
4636;SDS011;2331;48.806;9.140;2023-05-08T11:07:22;10.93;;;7.30;;
4636;SDS011;2331;48.806;9.140;2023-05-08T11:10:05;10.95;;;7.25;;
4636;SDS011;2331;48.806;9.140;2023-05-08T11:12:32;12.35;;;7.97;;
4636;SDS011;2331;48.806;9.140;2023-05-08T11:15:02;10.75;;;7.20;;
4636;SDS011;2331;48.806;9.140;2023-05-08T11:17:31;12.40;;;8.57;;
4636;SDS011;2331;48.806;9.140;2023-05-08T11:19:59;12.27;;;7.57;;
4636;SDS011;2331;48.806;9.140;2023-05-08T11:22:28;10.15;;;7.30;;
4636;SDS011;2331;48.806;9.140;2023-05-08T11:25:00;9.07;;;6.65;;
4636;SDS011;2331;48.806;9.140;2023-05-08T11:27:35;9.18;;;6.63;;
4636;SDS011;2331;48.806;9.140;2023-05-08T11:30:33;10.25;;;7.00;;
4636;SDS011;2331;48.806;9.140;2023-05-08T11:33:11;11.38;;;6.38;;
4636;SDS011;2331;48.806;9.140;2023-05-08T11:35:39;9.32;;;6.97;;
4636;SDS011;2331;48.806;9.140;2023-05-08T11:38:10;10.57;;;6.80;;
4636;SDS011;2331;48.806;9.140;2023-05-08T11:40:44;15.25;;;7.30;;
4636;SDS011;2331;48.806;9.140;2023-05-08T11:43:25;8.83;;;6.90;;
4636;SDS011;2331;48.806;9.140;2023-05-08T11:46:12;10.82;;;7.63;;
4636;SDS011;2331;48.806;9.140;2023-05-08T11:48:40;12.27;;;7.53;;
4636;SDS011;2331;48.806;9.140;2023-05-08T11:51:07;12.73;;;8.40;;
4636;SDS011;2331;48.806;9.140;2023-05-08T11:53:35;10.80;;;7.40;;
4636;SDS011;2331;48.806;9.140;2023-05-08T11:56:03;11.30;;;7.17;;
4636;SDS011;2331;48.806;9.140;2023-05-08T11:58:31;9.60;;;7.03;;
4636;SDS011;2331;48.806;9.140;2023-05-08T12:00:58;9.23;;;6.67;;
4636;SDS011;2331;48.806;9.140;2023-05-08T12:03:25;8.30;;;6.65;;
4636;SDS011;2331;48.806;9.140;2023-05-08T12:05:54;9.43;;;7.00;;
4636;SDS011;2331;48.806;9.140;2023-05-08T12:08:22;9.27;;;7.37;;
4636;SDS011;2331;48.806;9.140;2023-05-08T12:10:49;10.40;;;7.70;;
4636;SDS011;2331;48.806;9.140;2023-05-08T12:13:17;11.17;;;7.83;;
4636;SDS011;2331;48.806;9.140;2023-05-08T12:15:46;10.63;;;7.60;;
4636;SDS011;2331;48.806;9.140;2023-05-08T12:18:15;8.80;;;7.10;;
4636;SDS011;2331;48.806;9.140;2023-05-08T12:20:42;9.27;;;6.90;;
4636;SDS011;2331;48.806;9.140;2023-05-08T12:23:09;12.17;;;8.00;;
4636;SDS011;2331;48.806;9.140;2023-05-08T12:25:37;9.83;;;6.50;;
4636;SDS011;2331;48.806;9.140;2023-05-08T12:28:05;9.10;;;7.00;;
4636;SDS011;2331;48.806;9.140;2023-05-08T12:30:32;8.30;;;6.17;;
4636;SDS011;2331;48.806;9.140;2023-05-08T12:33:00;9.80;;;6.73;;
4636;SDS011;2331;48.806;9.140;2023-05-08T12:35:28;8.47;;;6.30;;
4636;SDS011;2331;48.806;9.140;2023-05-08T12:37:59;8.50;;;6.40;;
4636;SDS011;2331;48.806;9.140;2023-05-08T12:40:29;9.27;;;7.10;;
4636;SDS011;2331;48.806;9.140;2023-05-08T12:42:59;9.33;;;6.60;;
4636;SDS011;2331;48.806;9.140;2023-05-08T12:45:27;9.30;;;6.33;;
4636;SDS011;2331;48.806;9.140;2023-05-08T12:47:57;7.40;;;5.40;;
4636;SDS011;2331;48.806;9.140;2023-05-08T12:50:26;8.03;;;5.97;;
4636;SDS011;2331;48.806;9.140;2023-05-08T12:53:00;8.70;;;7.50;;
4636;SDS011;2331;48.806;9.140;2023-05-08T12:55:27;9.20;;;7.23;;
4636;SDS011;2331;48.806;9.140;2023-05-08T12:57:59;14.70;;;11.13;;
4636;SDS011;2331;48.806;9.140;2023-05-08T13:00:33;14.70;;;11.17;;
4636;SDS011;2331;48.806;9.140;2023-05-08T13:03:01;16.93;;;12.00;;
4636;SDS011;2331;48.806;9.140;2023-05-08T13:05:30;17.07;;;12.40;;
4636;SDS011;2331;48.806;9.140;2023-05-08T13:08:00;16.97;;;12.50;;
4636;SDS011;2331;48.806;9.140;2023-05-08T13:10:46;15.00;;;10.77;;
4636;SDS011;2331;48.806;9.140;2023-05-08T13:13:15;20.90;;;12.03;;
4636;SDS011;2331;48.806;9.140;2023-05-08T13:15:42;15.80;;;11.43;;
4636;SDS011;2331;48.806;9.140;2023-05-08T13:18:10;16.17;;;12.20;;
4636;SDS011;2331;48.806;9.140;2023-05-08T13:20:38;15.20;;;11.90;;
4636;SDS011;2331;48.806;9.140;2023-05-08T13:23:05;18.20;;;12.50;;
4636;SDS011;2331;48.806;9.140;2023-05-08T13:25:34;13.37;;;10.33;;
4636;SDS011;2331;48.806;9.140;2023-05-08T13:28:01;14.67;;;11.27;;
4636;SDS011;2331;48.806;9.140;2023-05-08T13:30:29;14.70;;;11.50;;
4636;SDS011;2331;48.806;9.140;2023-05-08T13:32:56;18.17;;;11.10;;
4636;SDS011;2331;48.806;9.140;2023-05-08T13:35:23;14.50;;;10.40;;
4636;SDS011;2331;48.806;9.140;2023-05-08T13:37:53;13.90;;;9.73;;
4636;SDS011;2331;48.806;9.140;2023-05-08T13:40:20;14.83;;;11.13;;
4636;SDS011;2331;48.806;9.140;2023-05-08T13:42:47;14.77;;;10.90;;
4636;SDS011;2331;48.806;9.140;2023-05-08T13:45:14;16.23;;;11.50;;
4636;SDS011;2331;48.806;9.140;2023-05-08T13:47:42;12.63;;;9.83;;
4636;SDS011;2331;48.806;9.140;2023-05-08T13:50:10;17.13;;;10.73;;
4636;SDS011;2331;48.806;9.140;2023-05-08T13:52:37;13.20;;;9.73;;
4636;SDS011;2331;48.806;9.140;2023-05-08T13:55:07;14.60;;;10.03;;
4636;SDS011;2331;48.806;9.140;2023-05-08T13:57:35;13.67;;;10.90;;
4636;SDS011;2331;48.806;9.140;2023-05-08T14:00:03;17.33;;;11.67;;
4636;SDS011;2331;48.806;9.140;2023-05-08T14:02:30;17.93;;;12.20;;
4636;SDS011;2331;48.806;9.140;2023-05-08T14:04:57;16.90;;;12.57;;
4636;SDS011;2331;48.806;9.140;2023-05-08T14:07:24;15.60;;;12.70;;
4636;SDS011;2331;48.806;9.140;2023-05-08T14:09:52;15.37;;;11.50;;
4636;SDS011;2331;48.806;9.140;2023-05-08T14:12:20;17.90;;;11.30;;
4636;SDS011;2331;48.806;9.140;2023-05-08T14:14:47;20.80;;;14.20;;
4636;SDS011;2331;48.806;9.140;2023-05-08T14:17:13;20.03;;;15.20;;
4636;SDS011;2331;48.806;9.140;2023-05-08T14:19:40;23.33;;;14.60;;
4636;SDS011;2331;48.806;9.140;2023-05-08T14:22:07;18.97;;;13.67;;
4636;SDS011;2331;48.806;9.140;2023-05-08T14:24:33;21.47;;;14.43;;
4636;SDS011;2331;48.806;9.140;2023-05-08T14:27:00;25.42;;;14.57;;
4636;SDS011;2331;48.806;9.140;2023-05-08T14:29:31;20.10;;;15.02;;
4636;SDS011;2331;48.806;9.140;2023-05-08T14:31:58;18.97;;;13.93;;
4636;SDS011;2331;48.806;9.140;2023-05-08T14:34:24;21.47;;;14.30;;
4636;SDS011;2331;48.806;9.140;2023-05-08T14:36:51;18.77;;;13.70;;
4636;SDS011;2331;48.806;9.140;2023-05-08T14:39:18;18.05;;;14.27;;
4636;SDS011;2331;48.806;9.140;2023-05-08T14:41:45;18.42;;;13.93;;
4636;SDS011;2331;48.806;9.140;2023-05-08T14:44:11;19.95;;;14.85;;
4636;SDS011;2331;48.806;9.140;2023-05-08T14:46:40;21.98;;;14.73;;
4636;SDS011;2331;48.806;9.140;2023-05-08T14:49:06;23.38;;;15.45;;
4636;SDS011;2331;48.806;9.140;2023-05-08T14:51:33;20.23;;;14.82;;
4636;SDS011;2331;48.806;9.140;2023-05-08T14:54:00;19.38;;;14.10;;
4636;SDS011;2331;48.806;9.140;2023-05-08T14:56:27;21.02;;;14.75;;
4636;SDS011;2331;48.806;9.140;2023-05-08T14:58:53;23.45;;;15.13;;
4636;SDS011;2331;48.806;9.140;2023-05-08T15:01:20;17.27;;;12.97;;
4636;SDS011;2331;48.806;9.140;2023-05-08T15:03:48;16.63;;;13.15;;
4636;SDS011;2331;48.806;9.140;2023-05-08T15:06:17;22.35;;;14.68;;
4636;SDS011;2331;48.806;9.140;2023-05-08T15:08:44;18.63;;;14.15;;
4636;SDS011;2331;48.806;9.140;2023-05-08T15:11:11;19.92;;;14.35;;
4636;SDS011;2331;48.806;9.140;2023-05-08T15:13:38;24.30;;;14.75;;
4636;SDS011;2331;48.806;9.140;2023-05-08T15:16:05;20.50;;;15.60;;
4636;SDS011;2331;48.806;9.140;2023-05-08T15:18:32;18.38;;;14.85;;
4636;SDS011;2331;48.806;9.140;2023-05-08T15:21:00;17.30;;;13.40;;